CFG7EC LSZH-EDDF
Flight info
| Callsign | CFG7EC |
|---|---|
| Flight time | 0h 40m |
| Altitude | 20000 |
| Route | DEGES Z1 SUDEN T164 KOVAN T163 SPESA SPESA5B |
| Aircraft | A320/M-SDE3FGHIRWY/LB1 |
Departure
| Time | 2026-04-17 12:00 |
|---|---|
| Airport | Zürich Airport (LSZH) |
Arrival
| Time | 2026-04-17 12:40 |
|---|---|
| Airport | Frankfurt Main Airport (EDDF) |
| Time | Latitude | Longitude | Altitude | Speed | Heading |
|---|---|---|---|---|---|
| 2026-04-17 11:25 | 47.45433 | 8.55634 | 1397 ft | 0 kts | 186° |
| 2026-04-17 11:50 | 47.45453 | 8.55638 | 1407 ft | 4 kts | 189° |
| 2026-04-17 11:50 | 47.45480 | 8.55646 | 1406 ft | 4 kts | 198° |
| 2026-04-17 11:51 | 47.45504 | 8.55662 | 1406 ft | 4 kts | 224° |
| 2026-04-17 11:51 | 47.45513 | 8.55686 | 1405 ft | 1 kts | 276° |
| 2026-04-17 11:53 | 47.45515 | 8.55669 | 1405 ft | 5 kts | 276° |
| 2026-04-17 11:53 | 47.45517 | 8.55630 | 1401 ft | 2 kts | 276° |
| 2026-04-17 11:54 | 47.45522 | 8.55562 | 1397 ft | 11 kts | 276° |
| 2026-04-17 11:54 | 47.45531 | 8.55416 | 1400 ft | 16 kts | 275° |
| 2026-04-17 11:54 | 47.45538 | 8.55317 | 1397 ft | 3 kts | 276° |
| 2026-04-17 11:54 | 47.45564 | 8.55256 | 1402 ft | 11 kts | 323° |
| 2026-04-17 11:55 | 47.45633 | 8.55206 | 1403 ft | 12 kts | 336° |
| 2026-04-17 11:55 | 47.45716 | 8.55149 | 1399 ft | 15 kts | 335° |
| 2026-04-17 11:55 | 47.45821 | 8.55077 | 1404 ft | 18 kts | 335° |
| 2026-04-17 11:55 | 47.45947 | 8.54991 | 1396 ft | 21 kts | 335° |
| 2026-04-17 11:56 | 47.46081 | 8.54900 | 1398 ft | 22 kts | 335° |
| 2026-04-17 11:56 | 47.46225 | 8.54798 | 1399 ft | 23 kts | 335° |
| 2026-04-17 11:56 | 47.46378 | 8.54693 | 1398 ft | 26 kts | 335° |
| 2026-04-17 11:56 | 47.46532 | 8.54585 | 1398 ft | 24 kts | 334° |
| 2026-04-17 11:57 | 47.46687 | 8.54477 | 1402 ft | 25 kts | 335° |
| 2026-04-17 11:57 | 47.46854 | 8.54379 | 1398 ft | 26 kts | 335° |
| 2026-04-17 11:57 | 47.46952 | 8.54288 | 1401 ft | 16 kts | 321° |
| 2026-04-17 11:57 | 47.47010 | 8.54185 | 1400 ft | 12 kts | 281° |
| 2026-04-17 11:58 | 47.47020 | 8.54079 | 1398 ft | 9 kts | 263° |
| 2026-04-17 11:58 | 47.46996 | 8.54008 | 1401 ft | 7 kts | 236° |
| 2026-04-17 11:58 | 47.46962 | 8.54005 | 1402 ft | 5 kts | 133° |
| 2026-04-17 11:58 | 47.46946 | 8.54025 | 1402 ft | 0 kts | 149° |
| 2026-04-17 11:59 | 47.46945 | 8.54026 | 1402 ft | 2 kts | 149° |
| 2026-04-17 11:59 | 47.46797 | 8.54131 | 1403 ft | 60 kts | 155° |
| 2026-04-17 11:59 | 47.46193 | 8.54545 | 1408 ft | 128 kts | 155° |
| 2026-04-17 11:59 | 47.45232 | 8.55238 | 1467 ft | 172 kts | 152° |
| 2026-04-17 12:00 | 47.44142 | 8.55978 | 2108 ft | 174 kts | 155° |
| 2026-04-17 12:00 | 47.43173 | 8.57048 | 2759 ft | 177 kts | 120° |
| 2026-04-17 12:00 | 47.42871 | 8.58748 | 3534 ft | 171 kts | 85° |
| 2026-04-17 12:00 | 47.43247 | 8.60420 | 4099 ft | 177 kts | 56° |
| 2026-04-17 12:01 | 47.44120 | 8.61843 | 4378 ft | 198 kts | 45° |
| 2026-04-17 12:01 | 47.45168 | 8.63349 | 4765 ft | 218 kts | 44° |
| 2026-04-17 12:01 | 47.46109 | 8.65131 | 5425 ft | 224 kts | 67° |
| 2026-04-17 12:01 | 47.46402 | 8.67407 | 6207 ft | 229 kts | 89° |
| 2026-04-17 12:02 | 47.46437 | 8.69814 | 6792 ft | 245 kts | 89° |
| 2026-04-17 12:02 | 47.46468 | 8.72463 | 7173 ft | 269 kts | 89° |
| 2026-04-17 12:02 | 47.46503 | 8.75310 | 7779 ft | 283 kts | 89° |
| 2026-04-17 12:02 | 47.46551 | 8.78261 | 8644 ft | 289 kts | 88° |
| 2026-04-17 12:03 | 47.46635 | 8.81247 | 9522 ft | 294 kts | 89° |
| 2026-04-17 12:03 | 47.46423 | 8.84238 | 10342 ft | 299 kts | 101° |
| 2026-04-17 12:03 | 47.45992 | 8.87354 | 10705 ft | 322 kts | 102° |
| 2026-04-17 12:03 | 47.45507 | 8.90718 | 10955 ft | 346 kts | 102° |
| 2026-04-17 12:04 | 47.44986 | 8.94304 | 11210 ft | 368 kts | 102° |
| 2026-04-17 12:04 | 47.44443 | 8.98048 | 11797 ft | 376 kts | 102° |
| 2026-04-17 12:04 | 47.43892 | 9.01849 | 12528 ft | 381 kts | 102° |
| 2026-04-17 12:04 | 47.43338 | 9.05701 | 13283 ft | 384 kts | 101° |
| 2026-04-17 12:05 | 47.42783 | 9.09574 | 14001 ft | 388 kts | 101° |
| 2026-04-17 12:05 | 47.42218 | 9.13502 | 14660 ft | 392 kts | 101° |
| 2026-04-17 12:05 | 47.41645 | 9.17453 | 15308 ft | 396 kts | 101° |
| 2026-04-17 12:05 | 47.41121 | 9.21446 | 15944 ft | 399 kts | 95° |
| 2026-04-17 12:06 | 47.41281 | 9.25532 | 16557 ft | 400 kts | 75° |
| 2026-04-17 12:06 | 47.42356 | 9.29295 | 17179 ft | 401 kts | 55° |
| 2026-04-17 12:06 | 47.44218 | 9.32327 | 17802 ft | 402 kts | 38° |
| 2026-04-17 12:06 | 47.46333 | 9.35066 | 18425 ft | 406 kts | 43° |
| 2026-04-17 12:07 | 47.48159 | 9.38269 | 18953 ft | 412 kts | 54° |
| 2026-04-17 12:07 | 47.49713 | 9.41861 | 19492 ft | 414 kts | 52° |
| 2026-04-17 12:07 | 47.51780 | 9.44770 | 19983 ft | 413 kts | 30° |
| 2026-04-17 12:07 | 47.54424 | 9.46353 | 20176 ft | 409 kts | 10° |
| 2026-04-17 12:08 | 47.57279 | 9.46638 | 20220 ft | 420 kts | 352° |
| 2026-04-17 12:08 | 47.60155 | 9.45572 | 20222 ft | 432 kts | 342° |
| 2026-04-17 12:08 | 47.63071 | 9.44567 | 20226 ft | 439 kts | 351° |
| 2026-04-17 12:08 | 47.66121 | 9.44342 | 20221 ft | 441 kts | 0° |
| 2026-04-17 12:09 | 47.69195 | 9.44685 | 20219 ft | 442 kts | 5° |
| 2026-04-17 12:09 | 47.72244 | 9.45261 | 20220 ft | 443 kts | 6° |
| 2026-04-17 12:09 | 47.75295 | 9.45827 | 20219 ft | 443 kts | 5° |
| 2026-04-17 12:09 | 47.78367 | 9.46267 | 20222 ft | 442 kts | 3° |
| 2026-04-17 12:10 | 47.81432 | 9.46538 | 20226 ft | 442 kts | 0° |
| 2026-04-17 12:10 | 47.84514 | 9.46600 | 20226 ft | 442 kts | 358° |
| 2026-04-17 12:10 | 47.87579 | 9.46523 | 20223 ft | 441 kts | 357° |
| 2026-04-17 12:10 | 47.90657 | 9.46397 | 20225 ft | 442 kts | 357° |
| 2026-04-17 12:11 | 47.93731 | 9.46283 | 20223 ft | 442 kts | 357° |
| 2026-04-17 12:11 | 47.96805 | 9.46210 | 20223 ft | 442 kts | 358° |
| 2026-04-17 12:11 | 47.99872 | 9.46183 | 20222 ft | 442 kts | 358° |
| 2026-04-17 12:12 | 48.06021 | 9.46188 | 20225 ft | 442 kts | 359° |
| 2026-04-17 12:12 | 48.09086 | 9.46197 | 20223 ft | 441 kts | 359° |
| 2026-04-17 12:12 | 48.12180 | 9.46203 | 20220 ft | 441 kts | 358° |
| 2026-04-17 12:12 | 48.15241 | 9.46199 | 20218 ft | 441 kts | 358° |
| 2026-04-17 12:13 | 48.18313 | 9.46195 | 20216 ft | 441 kts | 358° |
| 2026-04-17 12:13 | 48.21381 | 9.46196 | 20213 ft | 441 kts | 358° |
| 2026-04-17 12:13 | 48.24466 | 9.46195 | 20212 ft | 441 kts | 358° |
| 2026-04-17 12:13 | 48.27521 | 9.46193 | 20214 ft | 441 kts | 359° |
| 2026-04-17 12:14 | 48.30601 | 9.46141 | 20207 ft | 442 kts | 357° |
| 2026-04-17 12:14 | 48.33636 | 9.45984 | 20205 ft | 442 kts | 356° |
| 2026-04-17 12:14 | 48.36740 | 9.45751 | 20204 ft | 442 kts | 355° |
| 2026-04-17 12:14 | 48.39773 | 9.45494 | 20203 ft | 442 kts | 355° |
| 2026-04-17 12:15 | 48.42837 | 9.45227 | 20208 ft | 442 kts | 355° |
| 2026-04-17 12:15 | 48.45918 | 9.44976 | 20208 ft | 442 kts | 355° |
| 2026-04-17 12:15 | 48.49000 | 9.44743 | 20210 ft | 443 kts | 356° |
| 2026-04-17 12:15 | 48.52070 | 9.44525 | 20213 ft | 443 kts | 356° |
| 2026-04-17 12:16 | 48.55157 | 9.44313 | 20209 ft | 443 kts | 356° |
| 2026-04-17 12:16 | 48.58229 | 9.44104 | 20209 ft | 443 kts | 356° |
| 2026-04-17 12:16 | 48.61300 | 9.43891 | 20209 ft | 443 kts | 356° |
| 2026-04-17 12:16 | 48.64385 | 9.43679 | 20210 ft | 443 kts | 356° |
| 2026-04-17 12:17 | 48.67456 | 9.43466 | 20212 ft | 443 kts | 356° |
| 2026-04-17 12:17 | 48.70542 | 9.43245 | 20208 ft | 443 kts | 356° |
| 2026-04-17 12:17 | 48.73627 | 9.43023 | 20209 ft | 443 kts | 356° |
| 2026-04-17 12:17 | 48.76697 | 9.42797 | 20210 ft | 443 kts | 356° |
| 2026-04-17 12:18 | 48.79738 | 9.42580 | 20210 ft | 443 kts | 356° |
| 2026-04-17 12:18 | 48.82852 | 9.42364 | 20210 ft | 443 kts | 356° |
| 2026-04-17 12:18 | 48.85891 | 9.42149 | 20198 ft | 442 kts | 356° |
| 2026-04-17 12:18 | 48.88996 | 9.41929 | 19960 ft | 440 kts | 356° |
| 2026-04-17 12:19 | 48.92038 | 9.41714 | 19728 ft | 438 kts | 356° |
| 2026-04-17 12:19 | 48.95042 | 9.41498 | 19491 ft | 436 kts | 356° |
| 2026-04-17 12:19 | 48.98106 | 9.41274 | 19251 ft | 435 kts | 356° |
| 2026-04-17 12:19 | 49.01090 | 9.41057 | 19018 ft | 434 kts | 356° |
| 2026-04-17 12:20 | 49.04094 | 9.40845 | 18782 ft | 433 kts | 356° |
| 2026-04-17 12:20 | 49.07104 | 9.40635 | 18550 ft | 431 kts | 356° |
| 2026-04-17 12:20 | 49.10091 | 9.40420 | 18297 ft | 431 kts | 356° |
| 2026-04-17 12:20 | 49.13105 | 9.40198 | 18186 ft | 430 kts | 356° |
| 2026-04-17 12:21 | 49.16088 | 9.39979 | 18220 ft | 430 kts | 356° |
| 2026-04-17 12:21 | 49.19080 | 9.39764 | 18215 ft | 429 kts | 356° |
| 2026-04-17 12:21 | 49.22056 | 9.39553 | 18214 ft | 429 kts | 356° |
| 2026-04-17 12:21 | 49.25048 | 9.39339 | 18033 ft | 429 kts | 356° |
| 2026-04-17 12:22 | 49.28013 | 9.39121 | 17763 ft | 427 kts | 356° |
| 2026-04-17 12:22 | 49.30981 | 9.38900 | 17507 ft | 425 kts | 356° |
| 2026-04-17 12:22 | 49.33925 | 9.38681 | 17241 ft | 424 kts | 356° |
| 2026-04-17 12:22 | 49.36858 | 9.38465 | 16987 ft | 423 kts | 356° |
| 2026-04-17 12:23 | 49.39805 | 9.38248 | 16730 ft | 423 kts | 356° |
| 2026-04-17 12:23 | 49.42726 | 9.38040 | 16474 ft | 416 kts | 356° |
| 2026-04-17 12:23 | 49.45533 | 9.37843 | 16217 ft | 388 kts | 356° |
| 2026-04-17 12:23 | 49.48143 | 9.37657 | 15956 ft | 361 kts | 356° |
| 2026-04-17 12:24 | 49.50576 | 9.37483 | 15725 ft | 344 kts | 356° |
| 2026-04-17 12:24 | 49.52911 | 9.37309 | 15485 ft | 337 kts | 356° |
| 2026-04-17 12:24 | 49.55277 | 9.37132 | 15239 ft | 335 kts | 356° |
| 2026-04-17 12:24 | 49.57593 | 9.36967 | 14984 ft | 333 kts | 356° |
| 2026-04-17 12:25 | 49.59130 | 9.36861 | 14789 ft | 332 kts | 356° |
| 2026-04-17 12:25 | 49.62180 | 9.36648 | 14410 ft | 330 kts | 356° |
| 2026-04-17 12:25 | 49.64465 | 9.36485 | 14127 ft | 329 kts | 356° |
| 2026-04-17 12:25 | 49.66742 | 9.36320 | 13823 ft | 328 kts | 356° |
| 2026-04-17 12:26 | 49.68255 | 9.36209 | 13616 ft | 327 kts | 356° |
| 2026-04-17 12:26 | 49.71281 | 9.35985 | 13196 ft | 331 kts | 356° |
| 2026-04-17 12:26 | 49.72832 | 9.35866 | 12985 ft | 335 kts | 356° |
| 2026-04-17 12:26 | 49.75131 | 9.35686 | 12677 ft | 328 kts | 356° |
| 2026-04-17 12:27 | 49.77395 | 9.35510 | 12365 ft | 322 kts | 356° |
| 2026-04-17 12:27 | 49.79608 | 9.35342 | 12045 ft | 316 kts | 356° |
| 2026-04-17 12:27 | 49.81762 | 9.35172 | 11759 ft | 303 kts | 356° |
| 2026-04-17 12:27 | 49.83839 | 9.35006 | 11459 ft | 295 kts | 356° |
| 2026-04-17 12:28 | 49.85890 | 9.34847 | 11168 ft | 295 kts | 356° |
| 2026-04-17 12:28 | 49.87917 | 9.34604 | 10876 ft | 291 kts | 348° |
| 2026-04-17 12:28 | 49.89878 | 9.33898 | 10583 ft | 290 kts | 344° |
| 2026-04-17 12:28 | 49.91828 | 9.33098 | 10294 ft | 289 kts | 344° |
| 2026-04-17 12:29 | 49.93770 | 9.32292 | 9991 ft | 288 kts | 344° |
| 2026-04-17 12:29 | 49.95698 | 9.31494 | 9674 ft | 287 kts | 344° |
| 2026-04-17 12:29 | 49.97628 | 9.30692 | 9357 ft | 286 kts | 344° |
| 2026-04-17 12:29 | 49.99541 | 9.29889 | 9045 ft | 285 kts | 344° |
| 2026-04-17 12:30 | 50.01449 | 9.29055 | 8733 ft | 284 kts | 340° |
| 2026-04-17 12:30 | 50.03109 | 9.27500 | 8421 ft | 280 kts | 313° |
| 2026-04-17 12:30 | 50.04329 | 9.25141 | 8098 ft | 279 kts | 305° |
| 2026-04-17 12:30 | 50.05457 | 9.22679 | 7706 ft | 278 kts | 304° |
| 2026-04-17 12:31 | 50.06563 | 9.20257 | 7346 ft | 277 kts | 304° |
| 2026-04-17 12:31 | 50.07679 | 9.17823 | 6985 ft | 276 kts | 304° |
| 2026-04-17 12:31 | 50.08791 | 9.15403 | 6610 ft | 274 kts | 304° |
| 2026-04-17 12:31 | 50.09878 | 9.13039 | 6219 ft | 261 kts | 304° |
| 2026-04-17 12:32 | 50.10915 | 9.10794 | 5840 ft | 251 kts | 304° |
| 2026-04-17 12:32 | 50.11916 | 9.08628 | 5447 ft | 241 kts | 304° |
| 2026-04-17 12:32 | 50.12887 | 9.06526 | 5085 ft | 239 kts | 304° |
| 2026-04-17 12:32 | 50.13851 | 9.04457 | 5005 ft | 234 kts | 304° |
| 2026-04-17 12:33 | 50.14799 | 9.02393 | 5004 ft | 235 kts | 304° |
| 2026-04-17 12:33 | 50.15755 | 9.00308 | 5008 ft | 236 kts | 304° |
| 2026-04-17 12:33 | 50.16642 | 8.98170 | 4986 ft | 234 kts | 292° |
| 2026-04-17 12:33 | 50.16913 | 8.95732 | 4697 ft | 228 kts | 261° |
| 2026-04-17 12:34 | 50.16273 | 8.93545 | 4362 ft | 224 kts | 224° |
| 2026-04-17 12:34 | 50.15082 | 8.91983 | 4031 ft | 224 kts | 219° |
| 2026-04-17 12:34 | 50.13902 | 8.90450 | 3997 ft | 214 kts | 219° |
| 2026-04-17 12:34 | 50.12786 | 8.88998 | 4039 ft | 207 kts | 219° |
| 2026-04-17 12:35 | 50.11683 | 8.87562 | 4018 ft | 205 kts | 220° |
| 2026-04-17 12:35 | 50.10712 | 8.85974 | 3939 ft | 206 kts | 235° |
| 2026-04-17 12:35 | 50.10036 | 8.83969 | 3732 ft | 207 kts | 246° |
| 2026-04-17 12:35 | 50.09511 | 8.81893 | 3474 ft | 206 kts | 248° |
| 2026-04-17 12:37 | 50.06222 | 8.67833 | 1616 ft | 177 kts | 255° |
| 2026-04-17 12:37 | 50.06038 | 8.66037 | 1446 ft | 157 kts | 263° |
| 2026-04-17 12:38 | 50.05892 | 8.64430 | 1247 ft | 144 kts | 256° |
| 2026-04-17 12:38 | 50.05582 | 8.62988 | 1003 ft | 139 kts | 247° |
| 2026-04-17 12:38 | 50.05201 | 8.61616 | 839 ft | 138 kts | 248° |
| 2026-04-17 12:38 | 50.04871 | 8.60215 | 625 ft | 138 kts | 252° |
| 2026-04-17 12:39 | 50.04542 | 8.58819 | 415 ft | 137 kts | 250° |
| 2026-04-17 12:39 | 50.04214 | 8.57448 | 349 ft | 128 kts | 250° |
| 2026-04-17 12:39 | 50.03950 | 8.56331 | 352 ft | 95 kts | 249° |
| 2026-04-17 12:39 | 50.03761 | 8.55550 | 349 ft | 61 kts | 250° |
| 2026-04-17 12:40 | 50.03684 | 8.55159 | 348 ft | 23 kts | 273° |
| 2026-04-17 12:40 | 50.03699 | 8.54945 | 346 ft | 15 kts | 281° |
| 2026-04-17 12:40 | 50.03732 | 8.54849 | 346 ft | 4 kts | 326° |
| 2026-04-17 12:40 | 50.03737 | 8.54844 | 346 ft | 0 kts | 331° |
| 2026-04-17 12:42 | 50.03738 | 8.54844 | 346 ft | 1 kts | 332° |
| 2026-04-17 12:42 | 50.03759 | 8.54842 | 348 ft | 4 kts | 9° |
| 2026-04-17 12:43 | 50.03791 | 8.54884 | 350 ft | 9 kts | 56° |
| 2026-04-17 12:43 | 50.03814 | 8.54970 | 349 ft | 8 kts | 70° |
| 2026-04-17 12:43 | 50.03832 | 8.55047 | 349 ft | 7 kts | 69° |
| 2026-04-17 12:43 | 50.03848 | 8.55113 | 346 ft | 6 kts | 69° |
| 2026-04-17 12:44 | 50.03862 | 8.55170 | 348 ft | 5 kts | 69° |
| 2026-04-17 12:44 | 50.03874 | 8.55220 | 350 ft | 6 kts | 69° |
| 2026-04-17 12:44 | 50.03894 | 8.55304 | 346 ft | 11 kts | 70° |
| 2026-04-17 12:44 | 50.03924 | 8.55428 | 351 ft | 11 kts | 68° |
| 2026-04-17 12:45 | 50.03952 | 8.55537 | 346 ft | 10 kts | 68° |
| 2026-04-17 12:45 | 50.03977 | 8.55634 | 348 ft | 9 kts | 70° |
| 2026-04-17 12:45 | 50.03996 | 8.55720 | 352 ft | 8 kts | 70° |
| 2026-04-17 12:45 | 50.04014 | 8.55795 | 353 ft | 7 kts | 70° |
| 2026-04-17 12:46 | 50.04029 | 8.55860 | 348 ft | 6 kts | 70° |
| 2026-04-17 12:46 | 50.04049 | 8.55953 | 347 ft | 14 kts | 70° |
| 2026-04-17 12:46 | 50.04087 | 8.56073 | 350 ft | 11 kts | 40° |
| 2026-04-17 12:46 | 50.04158 | 8.56073 | 352 ft | 11 kts | 340° |
| 2026-04-17 12:47 | 50.04190 | 8.56054 | 351 ft | 0 kts | 338° |
| 2026-04-17 12:47 | 50.04197 | 8.56049 | 348 ft | 4 kts | 338° |
| 2026-04-17 12:47 | 50.04239 | 8.55996 | 346 ft | 10 kts | 296° |
| 2026-04-17 12:47 | 50.04230 | 8.55899 | 347 ft | 9 kts | 250° |
| 2026-04-17 12:48 | 50.04208 | 8.55816 | 349 ft | 8 kts | 248° |
| 2026-04-17 12:48 | 50.04187 | 8.55730 | 351 ft | 4 kts | 250° |
| 2026-04-17 12:48 | 50.04173 | 8.55719 | 348 ft | 2 kts | 185° |
| 2026-04-17 12:48 | 50.04153 | 8.55718 | 346 ft | 7 kts | 184° |
| 2026-04-17 12:49 | 50.04108 | 8.55732 | 349 ft | 6 kts | 160° |
| 2026-04-17 12:49 | 50.04093 | 8.55741 | 352 ft | 0 kts | 159° |